createdAt,value
2022-12-29T00:02:37.251Z,1.50
2022-12-29T00:07:38.913Z,1.85
2022-12-29T00:12:59.125Z,2.03
2022-12-29T00:18:00.841Z,1.38
2022-12-29T00:23:21.113Z,1.55
2022-12-29T00:28:41.075Z,3.15
2022-12-29T00:34:01.083Z,2.33
2022-12-29T00:39:24.146Z,1.20
2022-12-29T00:44:25.750Z,1.00
2022-12-29T00:49:33.345Z,2.33
2022-12-29T00:54:37.946Z,1.50
2022-12-29T00:59:41.149Z,1.10
2022-12-29T01:04:42.815Z,2.28
2022-12-29T01:10:02.853Z,1.33
2022-12-29T01:15:05.001Z,1.38
2022-12-29T01:20:07.406Z,1.42
2022-12-29T01:25:10.436Z,1.80
2022-12-29T01:30:13.682Z,1.38
2022-12-29T01:35:15.919Z,4.10
2022-12-29T01:40:20.169Z,2.72
2022-12-29T01:45:22.019Z,1.52
2022-12-29T01:50:32.717Z,1.40
2022-12-29T01:55:49.443Z,2.00
2022-12-29T02:00:51.369Z,1.55
2022-12-29T02:05:59.049Z,2.28
2022-12-29T02:11:01.859Z,4.00
2022-12-29T02:16:06.185Z,1.75
2022-12-29T02:21:16.611Z,1.60
2022-12-29T02:26:27.919Z,2.50
2022-12-29T02:31:36.446Z,2.13
2022-12-29T02:36:46.169Z,1.48
2022-12-29T02:42:04.380Z,3.88
2022-12-29T02:47:17.715Z,2.05
2022-12-29T02:52:26.604Z,1.27
2022-12-29T02:57:35.040Z,2.13
2022-12-29T03:02:40.258Z,2.00
2022-12-29T03:07:48.295Z,1.30
2022-12-29T03:13:38.865Z,1.50
2022-12-29T03:19:03.645Z,2.10
2022-12-29T03:24:05.800Z,2.33
2022-12-29T03:29:08.957Z,1.60
2022-12-29T03:34:12.182Z,3.28
2022-12-29T03:39:15.758Z,1.92
2022-12-29T03:44:17.318Z,3.42
2022-12-29T03:49:18.980Z,2.13
2022-12-29T03:54:20.715Z,1.60
2022-12-29T03:59:22.473Z,1.33
2022-12-29T04:04:24.767Z,3.80
2022-12-29T04:09:26.766Z,2.90
2022-12-29T04:14:28.385Z,1.23
2022-12-29T04:19:31.201Z,1.20
2022-12-29T04:24:32.865Z,2.15
2022-12-29T04:29:35.015Z,1.00
2022-12-29T04:34:58.977Z,1.77
2022-12-29T04:40:00.724Z,1.65
2022-12-29T04:45:03.132Z,1.33
2022-12-29T04:50:27.321Z,1.00
2022-12-29T04:55:51.338Z,1.15
2022-12-29T05:00:53.226Z,1.20
2022-12-29T05:05:58.378Z,1.20
2022-12-29T05:11:00.193Z,1.73
2022-12-29T05:16:02.361Z,1.45
2022-12-29T05:21:04.210Z,1.20
2022-12-29T05:26:05.908Z,1.10
2022-12-29T05:31:18.667Z,1.38
2022-12-29T05:36:20.732Z,1.35
2022-12-29T05:41:25.923Z,1.83
2022-12-29T05:46:48.278Z,1.45
2022-12-29T05:52:16.099Z,1.23
2022-12-29T05:57:19.008Z,1.67
2022-12-29T06:02:25.831Z,1.33
2022-12-29T06:07:28.712Z,1.58
2022-12-29T06:12:30.347Z,1.10
2022-12-29T06:17:32.072Z,1.02
2022-12-29T06:22:33.871Z,1.08
2022-12-29T06:27:36.494Z,2.80
2022-12-29T06:32:38.251Z,1.63
2022-12-29T06:37:42.925Z,1.73
2022-12-29T06:42:44.575Z,2.58
2022-12-29T06:48:24.472Z,2.05
2022-12-29T06:53:26.063Z,3.22
2022-12-29T06:58:27.659Z,2.10
2022-12-29T07:03:29.290Z,2.05
2022-12-29T07:08:30.958Z,1.10
2022-12-29T07:13:32.545Z,2.28
2022-12-29T07:18:34.346Z,1.92
2022-12-29T07:23:35.942Z,1.00
2022-12-29T07:28:38.951Z,1.23
2022-12-29T07:33:40.500Z,1.13
2022-12-29T07:38:42.999Z,1.55
2022-12-29T07:43:48.669Z,1.30
2022-12-29T07:49:19.127Z,1.75
2022-12-29T07:54:20.799Z,2.10
2022-12-29T07:59:22.571Z,1.30
2022-12-29T08:04:24.289Z,1.80
2022-12-29T08:09:25.952Z,2.42
2022-12-29T08:14:27.633Z,1.50
2022-12-29T08:19:29.184Z,1.70
2022-12-29T08:24:30.756Z,1.17
2022-12-29T08:29:32.367Z,2.90
2022-12-29T08:34:33.969Z,1.85
2022-12-29T08:39:35.968Z,1.38
2022-12-29T08:44:37.804Z,1.30
2022-12-29T08:49:39.382Z,2.28
2022-12-29T08:54:41.110Z,3.13
2022-12-29T08:59:43.561Z,3.50
2022-12-29T09:04:46.482Z,1.48
2022-12-29T09:09:48.106Z,1.77
2022-12-29T09:14:49.760Z,1.38
2022-12-29T09:19:51.586Z,2.88
2022-12-29T09:24:53.229Z,1.45
2022-12-29T09:29:54.933Z,1.70
2022-12-29T09:34:56.617Z,1.80
2022-12-29T09:39:58.204Z,1.83
2022-12-29T09:45:09.565Z,2.40
2022-12-29T09:50:24.227Z,2.00
2022-12-29T09:55:34.609Z,1.55
2022-12-29T10:00:54.743Z,2.40
2022-12-29T10:06:04.598Z,5.85
2022-12-29T10:11:27.299Z,3.65
2022-12-29T10:16:46.927Z,3.35
2022-12-29T10:22:06.597Z,5.75
2022-12-29T10:27:13.497Z,1.50
2022-12-29T10:32:33.528Z,2.55
2022-12-29T10:37:44.243Z,1.77
2022-12-29T10:42:49.719Z,4.20
2022-12-29T10:47:53.828Z,1.50
2022-12-29T10:52:55.675Z,1.30
2022-12-29T10:58:01.303Z,1.92
2022-12-29T11:03:11.814Z,1.52
2022-12-29T11:08:16.876Z,3.63
2022-12-29T11:13:21.980Z,3.83
2022-12-29T11:18:31.906Z,2.65
2022-12-29T11:23:41.975Z,1.98
2022-12-29T11:28:46.676Z,1.55
2022-12-29T11:33:48.316Z,1.38
2022-12-29T11:38:52.862Z,1.50
2022-12-29T11:43:57.021Z,1.52
2022-12-29T11:49:01.443Z,1.45
2022-12-29T11:54:04.711Z,1.40
2022-12-29T11:59:27.951Z,2.28
2022-12-29T12:04:36.563Z,1.98
2022-12-29T12:09:45.270Z,1.40
2022-12-29T12:15:00.247Z,2.13
2022-12-29T12:20:34.707Z,3.92
2022-12-29T12:25:39.700Z,1.52
2022-12-29T12:30:45.951Z,1.45
2022-12-29T12:36:06.386Z,1.48
2022-12-29T12:41:14.396Z,2.22
2022-12-29T12:46:34.541Z,1.65
2022-12-29T12:52:05.390Z,2.88
2022-12-29T12:57:35.342Z,1.58
2022-12-29T13:02:40.147Z,4.03
2022-12-29T13:07:53.712Z,1.55
2022-12-29T13:12:58.303Z,2.47
2022-12-29T13:18:22.207Z,2.05
2022-12-29T13:23:42.200Z,1.67
2022-12-29T13:29:10.211Z,2.08
2022-12-29T13:34:23.883Z,3.60
2022-12-29T13:39:38.438Z,2.35
2022-12-29T13:44:44.907Z,3.58
2022-12-29T13:49:47.027Z,2.80
2022-12-29T13:54:54.629Z,3.13
2022-12-29T14:00:08.477Z,3.15
2022-12-29T14:05:29.852Z,3.85
2022-12-29T14:10:40.052Z,2.55
2022-12-29T14:15:44.819Z,3.95
2022-12-29T14:20:57.784Z,1.95
2022-12-29T14:25:59.380Z,1.50
2022-12-29T14:31:20.270Z,1.48
2022-12-29T14:36:42.380Z,2.85
2022-12-29T14:41:43.980Z,2.60
2022-12-29T14:47:07.705Z,3.15
2022-12-29T14:52:22.005Z,1.83
2022-12-29T14:57:50.474Z,1.20
2022-12-29T15:03:06.678Z,1.95
2022-12-29T15:08:09.693Z,2.13
2022-12-29T15:13:18.346Z,2.63
2022-12-29T15:18:25.435Z,1.52
2022-12-29T15:23:27.588Z,4.32
2022-12-29T15:28:44.331Z,1.65
2022-12-29T15:33:49.428Z,1.40
2022-12-29T15:38:51.317Z,1.83
2022-12-29T15:44:18.163Z,1.20
2022-12-29T15:49:20.951Z,3.45
2022-12-29T15:54:24.158Z,2.25
2022-12-29T15:59:31.600Z,1.40
2022-12-29T16:04:43.288Z,2.35
2022-12-29T16:09:57.755Z,1.83
2022-12-29T16:15:01.427Z,1.75
2022-12-29T16:20:06.664Z,2.17
2022-12-29T16:25:19.047Z,2.55
2022-12-29T16:30:32.837Z,1.85
2022-12-29T16:35:44.490Z,1.80
2022-12-29T16:41:04.685Z,4.15
2022-12-29T16:46:29.927Z,2.15
2022-12-29T16:51:36.618Z,4.15
2022-12-29T16:56:39.772Z,3.38
2022-12-29T17:01:41.645Z,1.67
2022-12-29T17:06:43.372Z,3.85
2022-12-29T17:12:02.542Z,1.60
2022-12-29T17:17:19.215Z,1.45
2022-12-29T17:22:25.679Z,3.08
2022-12-29T17:27:29.819Z,1.63
2022-12-29T17:32:31.504Z,2.13
2022-12-29T17:37:34.655Z,1.83
2022-12-29T17:42:40.689Z,1.42
2022-12-29T17:47:42.599Z,2.05
2022-12-29T17:52:48.542Z,1.45
2022-12-29T17:57:50.548Z,1.70
2022-12-29T18:02:52.473Z,2.33
2022-12-29T18:07:56.073Z,1.30
2022-12-29T18:13:03.773Z,1.45
2022-12-29T18:18:12.253Z,1.58
2022-12-29T18:23:22.398Z,2.75
2022-12-29T18:28:25.026Z,3.00
2022-12-29T18:33:27.719Z,2.35
2022-12-29T18:38:29.953Z,2.80
2022-12-29T18:43:31.586Z,2.92
2022-12-29T18:48:33.197Z,3.38
2022-12-29T18:53:37.574Z,1.70
2022-12-29T18:58:39.319Z,1.80
2022-12-29T19:03:40.941Z,3.03
2022-12-29T19:08:42.626Z,1.50
2022-12-29T19:13:44.276Z,3.10
2022-12-29T19:18:53.346Z,3.20
2022-12-29T19:24:06.140Z,2.45
2022-12-29T19:29:13.885Z,2.95
2022-12-29T19:34:16.293Z,5.63
2022-12-29T19:39:18.073Z,7.05
2022-12-29T19:44:19.801Z,8.82
2022-12-29T19:49:21.424Z,8.68
2022-12-29T19:54:23.026Z,8.85
2022-12-29T19:59:24.635Z,8.32
2022-12-29T20:04:26.270Z,10.10
2022-12-29T20:09:27.884Z,4.07
2022-12-29T20:14:29.523Z,4.95
2022-12-29T20:19:31.552Z,5.93
2022-12-29T20:24:34.489Z,5.80
2022-12-29T20:29:38.915Z,7.78
2022-12-29T20:34:40.666Z,11.32
2022-12-29T20:39:43.554Z,9.27
2022-12-29T20:44:45.386Z,9.05
2022-12-29T20:49:47.543Z,10.57
2022-12-29T20:54:49.114Z,4.93
2022-12-29T20:59:50.751Z,3.70
2022-12-29T21:10:14.071Z,3.65
2022-12-29T21:15:15.845Z,2.72
2022-12-29T21:20:29.748Z,1.50
2022-12-29T21:25:38.311Z,1.60
2022-12-29T21:30:40.282Z,1.20
2022-12-29T21:35:41.931Z,1.02
2022-12-29T21:40:43.530Z,1.38
2022-12-29T21:45:49.829Z,1.13
2022-12-29T21:51:12.464Z,1.02
2022-12-29T21:56:19.284Z,2.38
2022-12-29T22:01:39.588Z,1.30
2022-12-29T22:07:00.338Z,1.00
2022-12-29T22:12:20.658Z,2.03
2022-12-29T22:17:27.835Z,1.10
2022-12-29T22:22:30.474Z,1.73
2022-12-29T22:27:32.115Z,3.53
2022-12-29T22:32:34.231Z,1.70
2022-12-29T22:37:37.405Z,1.98
2022-12-29T22:42:39.393Z,2.55
2022-12-29T22:47:41.014Z,1.08
2022-12-29T22:52:42.648Z,1.17
2022-12-29T22:57:44.358Z,2.22
2022-12-29T23:02:46.199Z,1.88
2022-12-29T23:07:47.871Z,1.00
2022-12-29T23:12:49.493Z,1.52
2022-12-29T23:17:51.069Z,2.08
2022-12-29T23:22:52.700Z,1.42
2022-12-29T23:27:54.350Z,1.38
2022-12-29T23:32:56.055Z,3.17
2022-12-29T23:37:57.926Z,2.92
2022-12-29T23:42:59.483Z,2.35
2022-12-29T23:48:01.130Z,3.05
2022-12-29T23:53:02.720Z,1.48
2022-12-29T23:58:04.281Z,1.45
